EGPI/ILY METAR and TAF weather

Enter ICAO airport designator
Station Type Date Time Source
EGPI METAR 2019/08/24 09:50 UTC NOAA

EGPI 240950Z 14016KT 9999 FEW005 16/15 Q1015


Station Type Date Time Source
EGPI Decoded METAR 2019/08/24 09:50 UTC NOAA

Station name not available
Aug 24, 2019 - 05:50 AM EDT / 2019.08.24 0950 UTC
Wind: from the SE (140 degrees) at 18 MPH (16 KT):0
Visibility: greater than 7 mile(s):0
Sky conditions: mostly clear
Temperature: 60 F (16 C)
Dew Point: 59 F (15 C)
Relative Humidity: 93%
Pressure (altimeter): 29.97 in. Hg (1015 hPa)
ob: EGPI 240950Z 14016KT 9999 FEW005 16/15 Q1015
cycle: 10

Station Type Date Time Source
EGPI TAF UTC NOAA

Error!

Example: see airport list